BTR weather

Baton Rouge Metropolitan Airport
Baton Rouge, Louisiana, United States

Public forecast

Using degrees Fahrenheit for public forecast. Weather courtesy of forecast.io.

METAR (pilot weather report)

Retrieved 2019/03/24 13:53 UTC (1 hour ago):

KBTR 241353Z 11005KT 7SM CLR 15/12 A3020 RMK AO2 SLP227 T01500122

TAF (pilot weather forecast)

Retrieved 2019/03/24 12:30 UTC (2 hours ago):

TAF KBTR 241127Z 2412/2512 VRB04KT P6SM BKN250 FM251000 VRB03KT 1SM BR BKN008